sensor_id;sensor_type;location;lat;lon;timestamp;pressure;altitude;pressure_sealevel;temperature;humidity
10115;BME280;5097;43.260;27.812;2022-08-04T00:02:20;100088.34;;;22.38;58.42
10115;BME280;5097;43.260;27.812;2022-08-04T00:05:13;100060.50;;;22.30;57.98
10115;BME280;5097;43.260;27.812;2022-08-04T00:08:11;100091.78;;;22.57;57.42
10115;BME280;5097;43.260;27.812;2022-08-04T00:11:07;100078.66;;;22.54;57.50
10115;BME280;5097;43.260;27.812;2022-08-04T00:14:02;100092.81;;;22.56;57.51
10115;BME280;5097;43.260;27.812;2022-08-04T00:16:46;100072.22;;;22.38;57.42
10115;BME280;5097;43.260;27.812;2022-08-04T00:19:36;100099.94;;;22.65;57.33
10115;BME280;5097;43.260;27.812;2022-08-04T00:22:30;100099.06;;;22.65;57.01
10115;BME280;5097;43.260;27.812;2022-08-04T00:25:16;100097.91;;;22.67;56.88
10115;BME280;5097;43.260;27.812;2022-08-04T00:28:00;100083.53;;;22.50;57.01
10115;BME280;5097;43.260;27.812;2022-08-04T00:30:45;100106.16;;;22.66;57.46
10115;BME280;5097;43.260;27.812;2022-08-04T00:33:29;100108.34;;;22.70;57.23
10115;BME280;5097;43.260;27.812;2022-08-04T00:36:16;100118.34;;;22.86;56.76
10115;BME280;5097;43.260;27.812;2022-08-04T00:39:01;100115.75;;;22.68;57.12
10115;BME280;5097;43.260;27.812;2022-08-04T00:41:56;100122.78;;;22.61;57.38
10115;BME280;5097;43.260;27.812;2022-08-04T00:44:52;100065.69;;;22.23;57.37
10115;BME280;5097;43.260;27.812;2022-08-04T00:47:56;100093.41;;;22.41;57.35
10115;BME280;5097;43.260;27.812;2022-08-04T00:50:52;100122.19;;;22.75;56.91
10115;BME280;5097;43.260;27.812;2022-08-04T00:53:51;100098.78;;;22.41;57.20
10115;BME280;5097;43.260;27.812;2022-08-04T00:57:09;100119.03;;;22.54;57.39
10115;BME280;5097;43.260;27.812;2022-08-04T01:00:15;100100.84;;;22.03;58.00
10115;BME280;5097;43.260;27.812;2022-08-04T01:03:08;100089.41;;;22.01;58.11
10115;BME280;5097;43.260;27.812;2022-08-04T01:06:02;100099.03;;;21.86;58.60
10115;BME280;5097;43.260;27.812;2022-08-04T01:08:57;100095.41;;;21.95;58.67
10115;BME280;5097;43.260;27.812;2022-08-04T01:11:58;100127.47;;;22.06;58.53
10115;BME280;5097;43.260;27.812;2022-08-04T01:15:00;100100.91;;;21.67;59.10
10115;BME280;5097;43.260;27.812;2022-08-04T01:17:58;100102.75;;;21.67;59.05
10115;BME280;5097;43.260;27.812;2022-08-04T01:20:56;100125.47;;;21.72;59.61
10115;BME280;5097;43.260;27.812;2022-08-04T01:24:09;100129.19;;;21.71;59.51
10115;BME280;5097;43.260;27.812;2022-08-04T01:27:03;100103.69;;;21.30;60.40
10115;BME280;5097;43.260;27.812;2022-08-04T01:29:54;100101.00;;;21.30;60.29
10115;BME280;5097;43.260;27.812;2022-08-04T01:32:43;100118.97;;;21.47;60.05
10115;BME280;5097;43.260;27.812;2022-08-04T01:35:37;100126.34;;;21.27;60.91
10115;BME280;5097;43.260;27.812;2022-08-04T01:38:33;100119.56;;;21.23;60.79
10115;BME280;5097;43.260;27.812;2022-08-04T01:41:18;100087.16;;;21.06;61.13
10115;BME280;5097;43.260;27.812;2022-08-04T01:44:15;100084.59;;;20.87;62.10
10115;BME280;5097;43.260;27.812;2022-08-04T01:47:03;100081.63;;;20.90;62.04
10115;BME280;5097;43.260;27.812;2022-08-04T01:49:49;100089.59;;;20.82;62.62
10115;BME280;5097;43.260;27.812;2022-08-04T01:52:35;100110.19;;;20.81;63.16
10115;BME280;5097;43.260;27.812;2022-08-04T01:55:19;100076.59;;;20.67;63.04
10115;BME280;5097;43.260;27.812;2022-08-04T01:58:04;100101.47;;;20.79;63.69
10115;BME280;5097;43.260;27.812;2022-08-04T02:00:57;100070.13;;;20.60;63.94
10115;BME280;5097;43.260;27.812;2022-08-04T02:03:51;100080.44;;;20.65;64.22
10115;BME280;5097;43.260;27.812;2022-08-04T02:07:02;100066.47;;;20.61;64.31
10115;BME280;5097;43.260;27.812;2022-08-04T02:10:03;100036.13;;;20.23;65.42
10115;BME280;5097;43.260;27.812;2022-08-04T02:12:54;100069.09;;;20.43;65.60
10115;BME280;5097;43.260;27.812;2022-08-04T02:15:45;100101.75;;;20.66;65.70
10115;BME280;5097;43.260;27.812;2022-08-04T02:18:42;100066.81;;;20.38;65.88
10115;BME280;5097;43.260;27.812;2022-08-04T02:21:31;100080.81;;;20.42;65.82
10115;BME280;5097;43.260;27.812;2022-08-04T02:24:26;100103.94;;;20.53;66.15
10115;BME280;5097;43.260;27.812;2022-08-04T02:27:12;100091.78;;;20.49;65.98
10115;BME280;5097;43.260;27.812;2022-08-04T02:30:02;100095.56;;;20.56;65.82
10115;BME280;5097;43.260;27.812;2022-08-04T02:32:48;100106.56;;;20.63;65.27
10115;BME280;5097;43.260;27.812;2022-08-04T02:35:37;100111.50;;;20.67;64.75
10115;BME280;5097;43.260;27.812;2022-08-04T02:38:36;100080.75;;;20.62;64.45
10115;BME280;5097;43.260;27.812;2022-08-04T02:41:24;100098.22;;;20.75;64.25
10115;BME280;5097;43.260;27.812;2022-08-04T02:44:09;100088.41;;;20.47;64.31
10115;BME280;5097;43.260;27.812;2022-08-04T02:46:54;100109.44;;;20.51;64.80
10115;BME280;5097;43.260;27.812;2022-08-04T02:49:39;100100.94;;;20.56;64.14
10115;BME280;5097;43.260;27.812;2022-08-04T02:52:25;100070.50;;;20.37;63.92
10115;BME280;5097;43.260;27.812;2022-08-04T02:55:11;100083.81;;;20.29;64.53
10115;BME280;5097;43.260;27.812;2022-08-04T02:57:57;100081.13;;;20.29;64.50
10115;BME280;5097;43.260;27.812;2022-08-04T03:00:42;100075.34;;;20.24;64.33
10115;BME280;5097;43.260;27.812;2022-08-04T03:03:33;100084.84;;;20.08;64.65
10115;BME280;5097;43.260;27.812;2022-08-04T03:06:42;100075.91;;;20.27;64.15
10115;BME280;5097;43.260;27.812;2022-08-04T03:16:59;100097.84;;;20.51;63.58
10115;BME280;5097;43.260;27.812;2022-08-04T03:20:23;100113.66;;;20.54;63.55
10115;BME280;5097;43.260;27.812;2022-08-04T03:27:01;100110.38;;;20.60;63.56
10115;BME280;5097;43.260;27.812;2022-08-04T03:30:10;100110.25;;;20.71;62.81
10115;BME280;5097;43.260;27.812;2022-08-04T03:33:35;100111.09;;;20.72;62.84
10115;BME280;5097;43.260;27.812;2022-08-04T03:36:41;100111.94;;;20.72;62.60
10115;BME280;5097;43.260;27.812;2022-08-04T03:39:43;100105.28;;;20.76;62.63
10115;BME280;5097;43.260;27.812;2022-08-04T03:42:53;100112.94;;;20.99;62.44
10115;BME280;5097;43.260;27.812;2022-08-04T03:49:37;100113.31;;;21.04;61.58
10115;BME280;5097;43.260;27.812;2022-08-04T03:52:42;100121.19;;;21.34;61.47
10115;BME280;5097;43.260;27.812;2022-08-04T03:56:23;100119.88;;;21.66;60.25
10115;BME280;5097;43.260;27.812;2022-08-04T03:59:22;100135.38;;;21.90;59.84
10115;BME280;5097;43.260;27.812;2022-08-04T04:02:40;100117.34;;;21.82;60.06
10115;BME280;5097;43.260;27.812;2022-08-04T04:05:44;100118.38;;;22.07;59.72
10115;BME280;5097;43.260;27.812;2022-08-04T04:09:01;100122.81;;;22.17;59.53
10115;BME280;5097;43.260;27.812;2022-08-04T04:12:24;100125.59;;;22.25;59.36
10115;BME280;5097;43.260;27.812;2022-08-04T04:15:19;100117.44;;;22.17;59.16
10115;BME280;5097;43.260;27.812;2022-08-04T04:18:18;100120.22;;;22.51;58.52
10115;BME280;5097;43.260;27.812;2022-08-04T04:21:26;100120.78;;;22.63;58.14
10115;BME280;5097;43.260;27.812;2022-08-04T04:27:32;100119.09;;;22.62;58.11
10115;BME280;5097;43.260;27.812;2022-08-04T04:30:22;100122.94;;;22.94;57.55
10115;BME280;5097;43.260;27.812;2022-08-04T04:33:24;100133.44;;;23.05;57.06
10115;BME280;5097;43.260;27.812;2022-08-04T04:36:23;100126.63;;;22.93;56.92
10115;BME280;5097;43.260;27.812;2022-08-04T04:39:16;100116.06;;;23.00;56.84
10115;BME280;5097;43.260;27.812;2022-08-04T04:42:21;100128.47;;;23.19;56.57
10115;BME280;5097;43.260;27.812;2022-08-04T04:45:16;100133.94;;;23.09;56.87
10115;BME280;5097;43.260;27.812;2022-08-04T04:48:08;100131.16;;;23.19;56.38
10115;BME280;5097;43.260;27.812;2022-08-04T04:51:05;100132.19;;;23.34;56.02
10115;BME280;5097;43.260;27.812;2022-08-04T04:53:58;100130.69;;;23.40;55.90
10115;BME280;5097;43.260;27.812;2022-08-04T04:56:47;100130.19;;;23.36;55.75
10115;BME280;5097;43.260;27.812;2022-08-04T04:59:37;100135.28;;;23.64;55.55
10115;BME280;5097;43.260;27.812;2022-08-04T05:02:40;100132.28;;;23.75;55.48
10115;BME280;5097;43.260;27.812;2022-08-04T05:05:38;100122.81;;;23.63;55.46
10115;BME280;5097;43.260;27.812;2022-08-04T05:08:42;100131.81;;;23.97;55.05
10115;BME280;5097;43.260;27.812;2022-08-04T05:12:05;100139.34;;;23.76;55.23
10115;BME280;5097;43.260;27.812;2022-08-04T05:15:18;100126.84;;;23.51;55.68
10115;BME280;5097;43.260;27.812;2022-08-04T05:18:10;100130.84;;;23.38;55.78
10115;BME280;5097;43.260;27.812;2022-08-04T05:21:06;100144.69;;;23.52;55.91
10115;BME280;5097;43.260;27.812;2022-08-04T05:23:59;100146.06;;;23.56;55.77
10115;BME280;5097;43.260;27.812;2022-08-04T05:26:54;100140.75;;;23.89;54.97
10115;BME280;5097;43.260;27.812;2022-08-04T05:29:45;100146.13;;;23.89;54.77
10115;BME280;5097;43.260;27.812;2022-08-04T05:32:33;100130.97;;;24.13;54.15
10115;BME280;5097;43.260;27.812;2022-08-04T05:35:28;100149.50;;;24.24;54.07
10115;BME280;5097;43.260;27.812;2022-08-04T05:38:35;100149.16;;;24.10;53.96
10115;BME280;5097;43.260;27.812;2022-08-04T05:41:20;100146.47;;;24.10;53.99
10115;BME280;5097;43.260;27.812;2022-08-04T05:44:15;100142.25;;;24.33;53.96
10115;BME280;5097;43.260;27.812;2022-08-04T05:47:01;100147.75;;;24.56;53.36
10115;BME280;5097;43.260;27.812;2022-08-04T05:49:46;100144.88;;;24.66;53.14
10115;BME280;5097;43.260;27.812;2022-08-04T05:52:45;100145.00;;;24.81;52.58
10115;BME280;5097;43.260;27.812;2022-08-04T05:55:31;100137.94;;;24.80;52.53
10115;BME280;5097;43.260;27.812;2022-08-04T05:58:35;100151.84;;;25.08;52.35
10115;BME280;5097;43.260;27.812;2022-08-04T06:01:20;100140.25;;;24.91;52.42
10115;BME280;5097;43.260;27.812;2022-08-04T06:04:07;100111.75;;;25.12;51.91
10115;BME280;5097;43.260;27.812;2022-08-04T06:06:53;100144.66;;;25.23;52.02
10115;BME280;5097;43.260;27.812;2022-08-04T06:09:37;100126.09;;;25.52;51.10
10115;BME280;5097;43.260;27.812;2022-08-04T06:12:25;100140.66;;;25.51;51.15
10115;BME280;5097;43.260;27.812;2022-08-04T06:15:11;100140.75;;;25.34;51.23
10115;BME280;5097;43.260;27.812;2022-08-04T06:18:01;100144.19;;;25.74;50.46
10115;BME280;5097;43.260;27.812;2022-08-04T06:21:08;100136.16;;;26.13;49.83
10115;BME280;5097;43.260;27.812;2022-08-04T06:23:58;100135.97;;;26.29;50.24
10115;BME280;5097;43.260;27.812;2022-08-04T06:26:46;100135.59;;;25.94;50.09
10115;BME280;5097;43.260;27.812;2022-08-04T06:29:32;100136.31;;;25.88;50.19
10115;BME280;5097;43.260;27.812;2022-08-04T06:32:19;100128.66;;;26.15;49.90
10115;BME280;5097;43.260;27.812;2022-08-04T06:35:18;100136.28;;;26.34;49.73
10115;BME280;5097;43.260;27.812;2022-08-04T06:38:04;100128.75;;;26.06;49.59
10115;BME280;5097;43.260;27.812;2022-08-04T06:40:49;100128.09;;;26.04;49.93
10115;BME280;5097;43.260;27.812;2022-08-04T06:43:33;100124.63;;;26.49;49.10
10115;BME280;5097;43.260;27.812;2022-08-04T06:46:25;100124.34;;;26.43;49.59
10115;BME280;5097;43.260;27.812;2022-08-04T06:49:10;100128.75;;;26.59;48.98
10115;BME280;5097;43.260;27.812;2022-08-04T06:51:57;100121.16;;;26.55;49.13
10115;BME280;5097;43.260;27.812;2022-08-04T06:54:43;100131.59;;;26.28;49.66
10115;BME280;5097;43.260;27.812;2022-08-04T06:57:29;100126.75;;;26.53;48.75
10115;BME280;5097;43.260;27.812;2022-08-04T07:00:15;100120.66;;;26.21;49.37
10115;BME280;5097;43.260;27.812;2022-08-04T07:03:01;100133.09;;;26.31;49.39
10115;BME280;5097;43.260;27.812;2022-08-04T07:05:46;100125.66;;;26.48;48.51
10115;BME280;5097;43.260;27.812;2022-08-04T07:08:31;100102.66;;;26.43;48.69
10115;BME280;5097;43.260;27.812;2022-08-04T07:11:17;100126.31;;;26.65;47.77
10115;BME280;5097;43.260;27.812;2022-08-04T07:14:02;100138.00;;;26.95;47.37
10115;BME280;5097;43.260;27.812;2022-08-04T07:16:48;100136.13;;;26.66;47.99
10115;BME280;5097;43.260;27.812;2022-08-04T07:19:34;100098.66;;;26.84;47.55
10115;BME280;5097;43.260;27.812;2022-08-04T07:22:19;100093.75;;;27.09;46.43
10115;BME280;5097;43.260;27.812;2022-08-04T07:25:09;100130.31;;;27.14;47.09
10115;BME280;5097;43.260;27.812;2022-08-04T07:27:56;100095.75;;;27.01;46.24
10115;BME280;5097;43.260;27.812;2022-08-04T07:30:39;100105.69;;;27.30;45.71
10115;BME280;5097;43.260;27.812;2022-08-04T07:33:26;100122.84;;;27.52;45.29
10115;BME280;5097;43.260;27.812;2022-08-04T07:36:11;100127.03;;;27.76;45.39
10115;BME280;5097;43.260;27.812;2022-08-04T07:38:56;100118.06;;;27.54;45.59
10115;BME280;5097;43.260;27.812;2022-08-04T07:41:41;100095.38;;;27.62;44.68
10115;BME280;5097;43.260;27.812;2022-08-04T07:44:32;100113.28;;;28.00;45.18
10115;BME280;5097;43.260;27.812;2022-08-04T07:47:17;100112.13;;;28.16;44.17
10115;BME280;5097;43.260;27.812;2022-08-04T07:50:08;100122.78;;;28.11;44.42
10115;BME280;5097;43.260;27.812;2022-08-04T07:52:55;100091.25;;;27.66;43.90
10115;BME280;5097;43.260;27.812;2022-08-04T07:56:00;100067.75;;;27.52;44.22
10115;BME280;5097;43.260;27.812;2022-08-04T07:58:45;100114.22;;;28.14;43.71
10115;BME280;5097;43.260;27.812;2022-08-04T08:01:33;100102.59;;;28.20;43.04
10115;BME280;5097;43.260;27.812;2022-08-04T08:04:17;100106.03;;;28.35;41.91
10115;BME280;5097;43.260;27.812;2022-08-04T08:07:02;100116.97;;;28.49;42.33
10115;BME280;5097;43.260;27.812;2022-08-04T08:09:46;100092.72;;;28.12;42.10
10115;BME280;5097;43.260;27.812;2022-08-04T08:12:31;100118.66;;;28.50;41.85
10115;BME280;5097;43.260;27.812;2022-08-04T08:15:33;100124.59;;;28.60;42.43
10115;BME280;5097;43.260;27.812;2022-08-04T08:18:19;100082.41;;;28.64;42.22
10115;BME280;5097;43.260;27.812;2022-08-04T08:21:03;100109.88;;;28.89;41.45
10115;BME280;5097;43.260;27.812;2022-08-04T08:23:49;100115.44;;;29.09;41.32
10115;BME280;5097;43.260;27.812;2022-08-04T08:26:33;100080.81;;;28.83;41.52
10115;BME280;5097;43.260;27.812;2022-08-04T08:29:18;100107.31;;;29.23;40.83
10115;BME280;5097;43.260;27.812;2022-08-04T08:32:03;100096.09;;;28.84;40.68
10115;BME280;5097;43.260;27.812;2022-08-04T08:34:52;100115.88;;;28.71;41.42
10115;BME280;5097;43.260;27.812;2022-08-04T08:37:39;100108.75;;;28.70;40.70
10115;BME280;5097;43.260;27.812;2022-08-04T08:40:29;100103.03;;;28.93;40.96
10115;BME280;5097;43.260;27.812;2022-08-04T08:43:41;100115.03;;;29.13;40.44
10115;BME280;5097;43.260;27.812;2022-08-04T08:47:03;100093.56;;;29.31;40.82
10115;BME280;5097;43.260;27.812;2022-08-04T08:50:15;100119.16;;;29.84;39.77
10115;BME280;5097;43.260;27.812;2022-08-04T08:53:12;100120.38;;;29.48;39.88
10115;BME280;5097;43.260;27.812;2022-08-04T08:56:12;100104.28;;;29.53;39.62
10115;BME280;5097;43.260;27.812;2022-08-04T08:59:14;100104.91;;;29.62;39.51
10115;BME280;5097;43.260;27.812;2022-08-04T09:02:15;100112.06;;;30.23;38.44
10115;BME280;5097;43.260;27.812;2022-08-04T09:05:37;100105.34;;;30.19;37.66
10115;BME280;5097;43.260;27.812;2022-08-04T09:08:41;100099.47;;;29.82;38.64
10115;BME280;5097;43.260;27.812;2022-08-04T09:11:39;100092.53;;;29.59;37.86
10115;BME280;5097;43.260;27.812;2022-08-04T09:14:29;100074.41;;;29.04;38.06
10115;BME280;5097;43.260;27.812;2022-08-04T09:17:22;100095.34;;;29.10;39.46
10115;BME280;5097;43.260;27.812;2022-08-04T09:20:17;100096.31;;;29.45;38.97
10115;BME280;5097;43.260;27.812;2022-08-04T09:23:17;100079.34;;;30.36;37.15
10115;BME280;5097;43.260;27.812;2022-08-04T09:26:08;100077.75;;;30.81;36.67
10115;BME280;5097;43.260;27.812;2022-08-04T09:28:59;100082.50;;;30.33;36.41
10115;BME280;5097;43.260;27.812;2022-08-04T09:31:54;100083.59;;;30.05;37.54
10115;BME280;5097;43.260;27.812;2022-08-04T09:34:56;100095.13;;;29.94;37.24
10115;BME280;5097;43.260;27.812;2022-08-04T09:38:01;100060.50;;;29.48;37.82
10115;BME280;5097;43.260;27.812;2022-08-04T09:40:55;100081.50;;;30.01;37.71
10115;BME280;5097;43.260;27.812;2022-08-04T09:43:48;100084.63;;;29.91;37.49
10115;BME280;5097;43.260;27.812;2022-08-04T09:47:03;100089.25;;;29.97;36.92
10115;BME280;5097;43.260;27.812;2022-08-04T09:49:54;100093.66;;;30.12;36.88
10115;BME280;5097;43.260;27.812;2022-08-04T09:52:45;100085.25;;;30.20;37.27
10115;BME280;5097;43.260;27.812;2022-08-04T09:55:40;100066.56;;;30.43;36.42
10115;BME280;5097;43.260;27.812;2022-08-04T09:58:45;100076.03;;;31.70;34.43
10115;BME280;5097;43.260;27.812;2022-08-04T10:01:33;100081.22;;;31.15;35.49
10115;BME280;5097;43.260;27.812;2022-08-04T10:04:20;100079.53;;;30.55;35.97
10115;BME280;5097;43.260;27.812;2022-08-04T10:07:18;100073.69;;;31.03;35.14
10115;BME280;5097;43.260;27.812;2022-08-04T10:10:18;100066.91;;;31.19;33.75
10115;BME280;5097;43.260;27.812;2022-08-04T10:13:16;100069.69;;;30.54;35.55
10115;BME280;5097;43.260;27.812;2022-08-04T10:16:29;100068.91;;;30.20;36.14
10115;BME280;5097;43.260;27.812;2022-08-04T10:19:24;100072.84;;;31.09;34.79
10115;BME280;5097;43.260;27.812;2022-08-04T10:22:13;100069.50;;;31.39;34.59
10115;BME280;5097;43.260;27.812;2022-08-04T10:25:33;100056.03;;;31.13;34.98
10115;BME280;5097;43.260;27.812;2022-08-04T10:28:45;100052.06;;;30.43;36.03
10115;BME280;5097;43.260;27.812;2022-08-04T10:31:33;100058.16;;;30.52;35.82
10115;BME280;5097;43.260;27.812;2022-08-04T10:34:20;100067.09;;;30.72;35.35
10115;BME280;5097;43.260;27.812;2022-08-04T10:37:10;100045.38;;;30.46;35.16
10115;BME280;5097;43.260;27.812;2022-08-04T10:40:02;100063.38;;;31.76;34.62
10115;BME280;5097;43.260;27.812;2022-08-04T10:43:10;100069.38;;;31.28;36.04
10115;BME280;5097;43.260;27.812;2022-08-04T10:46:06;100056.69;;;30.56;35.35
10115;BME280;5097;43.260;27.812;2022-08-04T10:48:55;100066.94;;;30.54;34.96
10115;BME280;5097;43.260;27.812;2022-08-04T10:51:43;100042.84;;;30.57;34.27
10115;BME280;5097;43.260;27.812;2022-08-04T10:54:46;100055.25;;;31.05;34.34
10115;BME280;5097;43.260;27.812;2022-08-04T10:57:37;100058.31;;;31.16;33.73
10115;BME280;5097;43.260;27.812;2022-08-04T11:00:24;100049.53;;;31.46;33.35
10115;BME280;5097;43.260;27.812;2022-08-04T11:03:16;100053.41;;;32.32;33.00
10115;BME280;5097;43.260;27.812;2022-08-04T11:06:05;100013.41;;;31.12;33.65
10115;BME280;5097;43.260;27.812;2022-08-04T11:08:53;100031.56;;;31.31;33.77
10115;BME280;5097;43.260;27.812;2022-08-04T11:11:42;100041.19;;;31.91;33.66
10115;BME280;5097;43.260;27.812;2022-08-04T11:14:49;100039.38;;;32.03;33.83
10115;BME280;5097;43.260;27.812;2022-08-04T11:17:36;100060.16;;;30.76;35.23
10115;BME280;5097;43.260;27.812;2022-08-04T11:20:26;100062.06;;;30.76;35.70
10115;BME280;5097;43.260;27.812;2022-08-04T11:23:24;100063.56;;;30.72;35.96
10115;BME280;5097;43.260;27.812;2022-08-04T11:26:13;100060.75;;;30.13;36.59
10115;BME280;5097;43.260;27.812;2022-08-04T11:29:04;100062.56;;;30.39;36.05
10115;BME280;5097;43.260;27.812;2022-08-04T11:31:53;100059.06;;;30.91;35.67
10115;BME280;5097;43.260;27.812;2022-08-04T11:34:45;100054.97;;;31.46;34.80
10115;BME280;5097;43.260;27.812;2022-08-04T11:37:42;100042.22;;;32.15;40.29
10115;BME280;5097;43.260;27.812;2022-08-04T11:40:35;100044.16;;;32.33;43.16
10115;BME280;5097;43.260;27.812;2022-08-04T11:43:25;100040.75;;;33.05;42.37
10115;BME280;5097;43.260;27.812;2022-08-04T11:46:34;100031.19;;;32.29;44.18
10115;BME280;5097;43.260;27.812;2022-08-04T11:49:26;100036.09;;;32.38;44.26
10115;BME280;5097;43.260;27.812;2022-08-04T11:52:14;100044.28;;;32.20;44.27
10115;BME280;5097;43.260;27.812;2022-08-04T11:55:03;100016.19;;;30.98;46.59
10115;BME280;5097;43.260;27.812;2022-08-04T11:57:49;100043.75;;;31.29;46.16
10115;BME280;5097;43.260;27.812;2022-08-04T12:00:39;100032.56;;;30.53;47.81
10115;BME280;5097;43.260;27.812;2022-08-04T12:03:34;100036.00;;;30.87;47.24
10115;BME280;5097;43.260;27.812;2022-08-04T12:06:24;100036.19;;;30.26;49.04
10115;BME280;5097;43.260;27.812;2022-08-04T12:09:14;100043.59;;;30.71;48.01
10115;BME280;5097;43.260;27.812;2022-08-04T12:12:06;100041.25;;;29.76;49.93
10115;BME280;5097;43.260;27.812;2022-08-04T12:15:04;100050.44;;;29.55;51.09
10115;BME280;5097;43.260;27.812;2022-08-04T12:18:05;100036.97;;;30.40;49.73
10115;BME280;5097;43.260;27.812;2022-08-04T12:20:56;100014.84;;;31.21;47.09
10115;BME280;5097;43.260;27.812;2022-08-04T12:23:42;100042.63;;;32.19;44.32
10115;BME280;5097;43.260;27.812;2022-08-04T12:26:31;100041.72;;;32.81;43.61
10115;BME280;5097;43.260;27.812;2022-08-04T12:29:19;100045.75;;;31.97;44.60
10115;BME280;5097;43.260;27.812;2022-08-04T12:32:15;100041.81;;;32.55;43.49
10115;BME280;5097;43.260;27.812;2022-08-04T12:35:06;100032.47;;;32.01;44.06
10115;BME280;5097;43.260;27.812;2022-08-04T12:37:57;100041.53;;;31.19;45.79
10115;BME280;5097;43.260;27.812;2022-08-04T12:40:46;100036.09;;;31.12;45.64
10115;BME280;5097;43.260;27.812;2022-08-04T12:43:37;100033.47;;;31.56;44.51
10115;BME280;5097;43.260;27.812;2022-08-04T12:46:22;100021.69;;;31.62;44.47
10115;BME280;5097;43.260;27.812;2022-08-04T12:49:09;100039.97;;;31.87;43.53
10115;BME280;5097;43.260;27.812;2022-08-04T12:51:55;100028.94;;;32.00;43.75
10115;BME280;5097;43.260;27.812;2022-08-04T12:54:52;100035.53;;;31.35;44.68
10115;BME280;5097;43.260;27.812;2022-08-04T12:57:39;100042.31;;;30.02;47.92
10115;BME280;5097;43.260;27.812;2022-08-04T13:00:28;100039.81;;;29.93;47.60
10115;BME280;5097;43.260;27.812;2022-08-04T13:03:27;100044.50;;;31.11;46.89
10115;BME280;5097;43.260;27.812;2022-08-04T13:06:14;100035.84;;;31.78;44.88
10115;BME280;5097;43.260;27.812;2022-08-04T13:09:06;100022.00;;;31.47;45.42
10115;BME280;5097;43.260;27.812;2022-08-04T13:12:01;100024.38;;;31.69;44.72
10115;BME280;5097;43.260;27.812;2022-08-04T13:14:49;100033.53;;;32.44;42.82
10115;BME280;5097;43.260;27.812;2022-08-04T13:17:44;100032.56;;;32.13;43.38
10115;BME280;5097;43.260;27.812;2022-08-04T13:20:31;100032.31;;;32.39;42.72
10115;BME280;5097;43.260;27.812;2022-08-04T13:23:19;100036.72;;;32.40;42.51
10115;BME280;5097;43.260;27.812;2022-08-04T13:26:05;100026.63;;;32.78;42.48
10115;BME280;5097;43.260;27.812;2022-08-04T13:29:12;100026.00;;;31.45;45.63
10115;BME280;5097;43.260;27.812;2022-08-04T13:31:58;100022.06;;;31.40;45.59
10115;BME280;5097;43.260;27.812;2022-08-04T13:34:45;100035.06;;;31.00;46.16
10115;BME280;5097;43.260;27.812;2022-08-04T13:37:33;100024.16;;;31.06;45.38
10115;BME280;5097;43.260;27.812;2022-08-04T13:40:21;100040.16;;;32.11;42.50
10115;BME280;5097;43.260;27.812;2022-08-04T13:43:22;100042.19;;;31.71;43.74
10115;BME280;5097;43.260;27.812;2022-08-04T13:46:28;100041.41;;;32.33;42.71
10115;BME280;5097;43.260;27.812;2022-08-04T13:49:15;100022.81;;;32.23;42.95
10115;BME280;5097;43.260;27.812;2022-08-04T13:52:23;100023.97;;;32.34;42.33
10115;BME280;5097;43.260;27.812;2022-08-04T13:55:20;100035.91;;;31.71;44.07
10115;BME280;5097;43.260;27.812;2022-08-04T13:58:08;100034.28;;;31.63;44.53
10115;BME280;5097;43.260;27.812;2022-08-04T14:00:58;100037.19;;;31.68;45.20
10115;BME280;5097;43.260;27.812;2022-08-04T14:03:51;100028.91;;;31.50;45.07
10115;BME280;5097;43.260;27.812;2022-08-04T14:06:44;100035.16;;;31.25;46.28
10115;BME280;5097;43.260;27.812;2022-08-04T14:09:32;100027.38;;;31.29;45.89
10115;BME280;5097;43.260;27.812;2022-08-04T14:12:18;100021.28;;;31.84;44.24
10115;BME280;5097;43.260;27.812;2022-08-04T14:15:31;100021.66;;;32.50;42.60
10115;BME280;5097;43.260;27.812;2022-08-04T14:18:35;100011.94;;;32.72;41.34
10115;BME280;5097;43.260;27.812;2022-08-04T14:21:19;100030.13;;;31.54;44.14
10115;BME280;5097;43.260;27.812;2022-08-04T14:24:04;100022.53;;;32.06;43.65
10115;BME280;5097;43.260;27.812;2022-08-04T14:26:48;100031.44;;;32.02;43.51
10115;BME280;5097;43.260;27.812;2022-08-04T14:29:37;100007.63;;;31.58;44.01
10115;BME280;5097;43.260;27.812;2022-08-04T14:32:23;100030.16;;;32.04;43.86
10115;BME280;5097;43.260;27.812;2022-08-04T14:35:09;100026.28;;;31.36;44.89
10115;BME280;5097;43.260;27.812;2022-08-04T14:37:56;100007.63;;;30.56;46.82
10115;BME280;5097;43.260;27.812;2022-08-04T14:40:44;100022.47;;;31.12;45.59
10115;BME280;5097;43.260;27.812;2022-08-04T14:43:28;100025.75;;;31.21;46.22
10115;BME280;5097;43.260;27.812;2022-08-04T14:46:17;100025.16;;;31.19;46.17
10115;BME280;5097;43.260;27.812;2022-08-04T14:49:05;99987.56;;;30.30;47.90
10115;BME280;5097;43.260;27.812;2022-08-04T14:51:53;100019.41;;;30.88;46.80
10115;BME280;5097;43.260;27.812;2022-08-04T14:54:39;100021.75;;;31.81;45.24
10115;BME280;5097;43.260;27.812;2022-08-04T14:57:23;100026.16;;;31.82;45.09
10115;BME280;5097;43.260;27.812;2022-08-04T15:00:08;100016.72;;;30.82;47.45
10115;BME280;5097;43.260;27.812;2022-08-04T15:03:01;100026.13;;;30.20;49.35
10115;BME280;5097;43.260;27.812;2022-08-04T15:05:45;100012.78;;;29.65;50.34
10115;BME280;5097;43.260;27.812;2022-08-04T15:08:45;100029.31;;;30.83;47.81
10115;BME280;5097;43.260;27.812;2022-08-04T15:11:29;100015.78;;;31.65;45.82
10115;BME280;5097;43.260;27.812;2022-08-04T15:14:13;100018.09;;;31.68;45.57
10115;BME280;5097;43.260;27.812;2022-08-04T15:17:18;100019.84;;;31.81;45.11
10115;BME280;5097;43.260;27.812;2022-08-04T15:20:13;100020.59;;;31.70;44.67
10115;BME280;5097;43.260;27.812;2022-08-04T15:23:00;100005.78;;;31.52;45.27
10115;BME280;5097;43.260;27.812;2022-08-04T15:25:52;100021.63;;;31.94;45.25